»·PEaware :: N172TT KBUR-KSAN

N172TT :: KBUR-KSAN

FLIGHT INFORMATION

Flight Status: Arrived
Operator: Privately registered:
United States
More flights under this callsign
Pilot: Thomas T. (19955)
Aircraft: CESSNA 172 SKYHAWK
(C172)
More flights by this aircraft type
Origin: KBUR Bob Hope-Burbank
United States
Destination: KSAN San Diego Intl-Lindbergh
United States
More flights between these airports :: More routes between these airports
Route: +KBUR ELMOO8 ELMOO V186 HAILE V66 MZB KSAN
File this flight plan on PilotEdge
Remarks: TEC BURP32 IFR TRAINING
Altitude:
(Current/Filed)
5,000ft
Speed:
(Current/Filed)
118kts
Departed: 11-Oct-18 10:37 AM
Arrived: 11-Oct-18 12:15 PM
Distance/Time
Traveled:
106nm/1:38
Distance/Time
To Go:
Arrived

Flight Plot

Page will automatically refresh every two minutes.

Flight plan parsing failed; only flown route is shown


Map Options




Map Legend


Flown Route
Filed Route
Departure Airport
Arrival Airport
Navaid (VOR, NDB)
Fix

Horizontal Profiles

Position Reports

Time Latitude Longitude Heading Altitude Ground
Speed
11-Oct-18 09:46 34.196338 -118.367565 358 734ft 0kts
11-Oct-18 09:47 34.196338 -118.367565 358 734ft 0kts
11-Oct-18 09:48 34.196338 -118.367565 358 734ft 0kts
11-Oct-18 09:49 34.196338 -118.367565 358 734ft 0kts
11-Oct-18 09:50 34.196338 -118.367565 358 734ft 0kts
11-Oct-18 09:51 34.196338 -118.367565 358 734ft 0kts
11-Oct-18 09:52 34.196338 -118.367565 358 734ft 0kts
11-Oct-18 09:53 34.196338 -118.367565 358 734ft 0kts
11-Oct-18 09:54 34.196338 -118.367565 358 734ft 0kts
11-Oct-18 09:55 34.196338 -118.367565 358 734ft 0kts
11-Oct-18 09:56 34.196338 -118.367565 358 734ft 0kts
11-Oct-18 09:57 34.196338 -118.367565 358 734ft 0kts
11-Oct-18 09:58 34.196338 -118.367565 358 734ft 0kts
11-Oct-18 09:59 34.196338 -118.367565 358 734ft 0kts
11-Oct-18 10:00 34.196338 -118.367565 358 734ft 0kts
11-Oct-18 10:01 34.196338 -118.367565 358 734ft 0kts
11-Oct-18 10:02 34.196338 -118.367565 358 734ft 0kts
11-Oct-18 10:03 34.196338 -118.367565 358 734ft 0kts
11-Oct-18 10:04 34.196338 -118.367565 358 734ft 0kts
11-Oct-18 10:05 34.196338 -118.367565 358 734ft 0kts
11-Oct-18 10:06 34.196338 -118.367565 358 734ft 0kts
11-Oct-18 10:07 34.196338 -118.367565 358 734ft 0kts
11-Oct-18 10:08 34.196338 -118.367565 358 734ft 0kts
11-Oct-18 10:09 34.196338 -118.367565 358 734ft 0kts
11-Oct-18 10:10 34.196338 -118.367565 358 734ft 0kts
11-Oct-18 10:11 34.196338 -118.367565 358 734ft 0kts
11-Oct-18 10:12 34.196338 -118.367565 358 734ft 0kts
11-Oct-18 10:13 34.196338 -118.367565 358 734ft 0kts
11-Oct-18 10:14 34.196338 -118.367565 358 734ft 0kts
11-Oct-18 10:15 34.196338 -118.367565 358 734ft 0kts
11-Oct-18 10:16 34.196338 -118.367565 358 734ft 0kts
11-Oct-18 10:17 34.196338 -118.367565 358 734ft 0kts
11-Oct-18 10:18 34.196338 -118.367565 358 734ft 0kts
11-Oct-18 10:19 34.196338 -118.367565 358 734ft 0kts
11-Oct-18 10:20 34.196338 -118.367565 358 734ft 0kts
11-Oct-18 10:21 34.196338 -118.367565 358 734ft 0kts
11-Oct-18 10:22 34.196338 -118.367565 358 734ft 0kts
11-Oct-18 10:23 34.196338 -118.367565 358 734ft 0kts
11-Oct-18 10:24 34.196338 -118.367565 358 734ft 0kts
11-Oct-18 10:25 34.196338 -118.367565 358 734ft 0kts
11-Oct-18 10:26 34.196338 -118.367565 358 734ft 0kts
11-Oct-18 10:27 34.196338 -118.367565 358 734ft 0kts
11-Oct-18 10:28 34.196338 -118.367565 358 734ft 0kts
11-Oct-18 10:29 34.196338 -118.367565 358 734ft 0kts
11-Oct-18 10:30 34.196338 -118.367565 358 734ft 0kts
11-Oct-18 10:31 34.196575 -118.367378 82 734ft 8kts
11-Oct-18 10:32 34.196911 -118.368771 279 734ft 0kts
11-Oct-18 10:33 34.196911 -118.368771 279 734ft 0kts
11-Oct-18 10:34 34.196911 -118.368771 279 734ft 0kts
11-Oct-18 10:35 34.196911 -118.368771 279 734ft 0kts
11-Oct-18 10:36 34.196911 -118.368771 279 734ft 0kts
11-Oct-18 10:37 34.196911 -118.368771 279 734ft 0kts
11-Oct-18 10:38 34.197900 -118.368669 87 734ft 0kts
11-Oct-18 10:39 34.197727 -118.357025 91 902ft 87kts
11-Oct-18 10:40 34.194313 -118.326723 136 1455ft 92kts
11-Oct-18 10:41 34.180805 -118.340401 263 1747ft 84kts
11-Oct-18 10:42 34.180959 -118.371987 274 1635ft 83kts
11-Oct-18 10:43 34.193461 -118.379046 38 1305ft 62kts
11-Oct-18 10:44 34.197482 -118.364791 165 734ft 13kts
11-Oct-18 10:45 34.196468 -118.365304 252 734ft 0kts
11-Oct-18 10:46 34.196468 -118.365304 252 734ft 0kts
11-Oct-18 10:47 34.196468 -118.365304 252 734ft 0kts
11-Oct-18 10:48 34.196468 -118.365304 252 734ft 0kts
11-Oct-18 10:49 34.196468 -118.365304 252 734ft 0kts
11-Oct-18 10:50 34.196912 -118.368159 268 734ft 13kts
11-Oct-18 10:51 34.196956 -118.368752 291 734ft 0kts
11-Oct-18 10:52 34.197254 -118.369066 346 734ft 7kts
11-Oct-18 10:53 34.197862 -118.366235 80 734ft 57kts
11-Oct-18 10:54 34.194957 -118.340314 130 1068ft 83kts
11-Oct-18 10:55 34.179037 -118.320692 134 1459ft 82kts
11-Oct-18 10:56 34.166845 -118.297976 110 1855ft 82kts
11-Oct-18 10:57 34.159271 -118.272173 109 2239ft 86kts
11-Oct-18 10:58 34.150679 -118.241694 105 2793ft 108kts
11-Oct-18 10:59 34.141403 -118.206520 109 3387ft 112kts
11-Oct-18 11:00 34.129122 -118.172502 112 3976ft 112kts
11-Oct-18 11:01 34.117565 -118.138967 110 4632ft 107kts
11-Oct-18 11:02 34.106341 -118.104590 110 4981ft 125kts
11-Oct-18 11:03 34.093885 -118.065799 109 4983ft 123kts
11-Oct-18 11:04 34.082191 -118.028802 109 4982ft 118kts
11-Oct-18 11:05 34.070756 -117.992182 110 4983ft 118kts
11-Oct-18 11:06 34.059478 -117.955848 110 5149ft 114kts
11-Oct-18 11:07 34.048523 -117.920025 110 5641ft 117kts
11-Oct-18 11:08 34.037323 -117.883681 111 6135ft 117kts
11-Oct-18 11:09 34.026135 -117.847520 111 6627ft 116kts
11-Oct-18 11:10 34.014633 -117.810523 111 6963ft 125kts
11-Oct-18 11:11 34.002091 -117.770611 111 6970ft 124kts
11-Oct-18 11:12 33.990730 -117.734501 111 6969ft 115kts
11-Oct-18 11:13 33.979624 -117.699024 111 6972ft 114kts
11-Oct-18 11:14 33.968579 -117.663714 111 6976ft 113kts
11-Oct-18 11:15 33.957561 -117.628505 111 6980ft 113kts
11-Oct-18 11:16 33.946531 -117.593290 110 6985ft 113kts
11-Oct-18 11:17 33.935489 -117.558080 110 6991ft 113kts
11-Oct-18 11:18 33.924469 -117.522976 109 6998ft 113kts
11-Oct-18 11:19 33.909293 -117.492448 144 7225ft 109kts
11-Oct-18 11:20 33.881412 -117.479446 179 7615ft 114kts
11-Oct-18 11:21 33.851183 -117.469412 157 8014ft 116kts
11-Oct-18 11:22 33.824022 -117.451414 149 8401ft 116kts
11-Oct-18 11:23 33.797716 -117.430813 147 8793ft 116kts
11-Oct-18 11:24 33.772232 -117.409960 147 8982ft 120kts
11-Oct-18 11:25 33.745778 -117.388092 147 8985ft 116kts
11-Oct-18 11:26 33.719644 -117.366326 146 8990ft 115kts
11-Oct-18 11:27 33.694348 -117.345228 147 8993ft 115kts
11-Oct-18 11:28 33.668539 -117.323706 147 8988ft 115kts
11-Oct-18 11:29 33.642563 -117.302058 147 8983ft 115kts
11-Oct-18 11:30 33.616532 -117.280379 147 8979ft 115kts
11-Oct-18 11:31 33.590528 -117.258740 147 8976ft 115kts
11-Oct-18 11:32 33.564802 -117.237352 146 8973ft 114kts
11-Oct-18 11:33 33.539114 -117.216002 146 8970ft 114kts
11-Oct-18 11:34 33.513799 -117.194981 146 8968ft 114kts
11-Oct-18 11:35 33.488214 -117.173752 146 8966ft 114kts
11-Oct-18 11:36 33.459809 -117.160399 172 8962ft 112kts
11-Oct-18 11:37 33.429663 -117.153818 168 8960ft 112kts
11-Oct-18 11:38 33.403189 -117.139731 153 8960ft 114kts
11-Oct-18 11:39 33.379117 -117.124158 153 8959ft 114kts
11-Oct-18 11:40 33.354391 -117.108155 153 8959ft 114kts
11-Oct-18 11:41 33.330070 -117.092332 153 8958ft 114kts
11-Oct-18 11:42 33.305770 -117.076435 153 8958ft 113kts
11-Oct-18 11:43 33.281608 -117.060537 153 8962ft 113kts
11-Oct-18 11:44 33.256213 -117.043740 153 8962ft 113kts
11-Oct-18 11:45 33.229877 -117.026226 153 8962ft 113kts
11-Oct-18 11:46 33.202925 -117.008205 153 8962ft 113kts
11-Oct-18 11:47 33.176227 -116.990261 153 8962ft 112kts
11-Oct-18 11:48 33.149738 -116.972370 153 8963ft 112kts
11-Oct-18 11:49 33.123582 -116.954624 153 8963ft 112kts
11-Oct-18 11:50 33.097797 -116.937021 153 8962ft 112kts
11-Oct-18 11:51 33.071434 -116.918846 153 8963ft 112kts
11-Oct-18 11:52 33.046245 -116.901334 153 8963ft 112kts
11-Oct-18 11:53 33.022739 -116.885013 159 8962ft 111kts
11-Oct-18 11:54 33.001523 -116.879925 175 8666ft 119kts
11-Oct-18 11:55 32.981066 -116.876138 175 8286ft 115kts
11-Oct-18 11:56 32.955622 -116.871581 175 7731ft 117kts
11-Oct-18 11:57 32.934868 -116.868077 175 7286ft 118kts
11-Oct-18 11:58 32.912871 -116.864575 175 6817ft 119kts
11-Oct-18 11:59 32.883620 -116.860243 175 6193ft 119kts
11-Oct-18 12:00 32.851263 -116.855856 175 5502ft 119kts
11-Oct-18 12:01 32.819573 -116.851900 175 5033ft 103kts
11-Oct-18 12:02 32.790959 -116.848302 174 5033ft 106kts
11-Oct-18 12:03 32.762383 -116.851998 195 4832ft 113kts
11-Oct-18 12:04 32.731392 -116.861136 195 4338ft 118kts
11-Oct-18 12:05 32.700132 -116.870614 195 3856ft 117kts
11-Oct-18 12:06 32.676101 -116.886098 259 3826ft 99kts
11-Oct-18 12:07 32.672272 -116.917171 268 3823ft 95kts
11-Oct-18 12:08 32.676823 -116.947292 280 3821ft 94kts
11-Oct-18 12:09 32.681922 -116.978035 284 3591ft 109kts
11-Oct-18 12:10 32.689620 -117.012285 287 3223ft 115kts
11-Oct-18 12:11 32.698103 -117.042407 288 2813ft 118kts
11-Oct-18 12:12 32.708528 -117.085851 283 2189ft 120kts
11-Oct-18 12:13 32.714924 -117.113749 287 1613ft 91kts
11-Oct-18 12:14 32.721781 -117.140492 287 937ft 92kts
11-Oct-18 12:15 32.728151 -117.167522 285 400ft 63kts
11-Oct-18 12:16 32.731897 -117.182832 287 14ft 45kts
11-Oct-18 12:17 32.733822 -117.183914 21 17ft 12kts
11-Oct-18 12:18 32.734911 -117.183813 230 17ft 0kts
11-Oct-18 12:19 32.734911 -117.183813 230 17ft 0kts

Navigation Log

Ident Type
Flight plan parsing failed, navigation log unavailable